1933 NOT_NAMED (1933212N06150)


IBTrACS version v04r00. Visit IBTrACS website for data access.
Please direct all questions to the IBTrACS Q and A forum

Storm track - Intensity - Wind Radii - Intensity Data - Source Data - All data

Summary Information

Storm ID 1933212N06150
Start Jul 30 22Z
End Aug 4 22Z
ATCF IDs
Track status Best track data.

Storm track plot

Map of storm track

Intensity plots

No Intensity information for this storm


Radial wind information

No radial wind information for this storm


Position and Intensity Table

BASIN ISO_TIME_________ NATURE LAT LON
degrees north degrees east
WP 1933-07-30 22:00:00 NR 5.80 149.70
WP 1933-07-31 00:00:00 NR 6.06 149.53
WP 03:00:00 NR 6.45 149.27
WP 06:00:00 NR 6.80 148.98
WP 09:00:00 NR 7.11 148.63
WP 10:00:00 NR 7.20 148.50
WP 12:00:00 NR 7.36 148.21
WP 15:00:00 NR 7.54 147.74
WP 18:00:00 NR 7.68 147.24
WP 21:00:00 NR 7.77 146.75
WP 22:00:00 NR 7.80 146.60
WP 1933-08-01 00:00:00 NR 7.86 146.33
WP 03:00:00 NR 7.92 145.96
WP 06:00:00 NR 7.96 145.59
WP 09:00:00 NR 7.99 145.23
WP 10:00:00 NR 8.00 145.10
WP 12:00:00 NR 8.02 144.89
WP 15:00:00 NR 8.05 144.57
WP 18:00:00 NR 8.08 144.17
WP 21:00:00 NR 8.10 143.63
WP 22:00:00 NR 8.10 143.40
WP 1933-08-02 00:00:00 NR 8.10 142.84
WP 03:00:00 NR 8.09 141.84
WP 06:00:00 NR 8.08 140.73
WP 09:00:00 NR 8.09 139.58
WP 10:00:00 NR 8.10 139.20
WP 12:00:00 NR 8.13 138.42
WP 15:00:00 NR 8.20 137.25
WP 18:00:00 NR 8.29 136.19
WP 21:00:00 NR 8.37 135.32
WP 22:00:00 NR 8.40 135.10
WP 1933-08-03 00:00:00 NR 8.44 134.80
WP 03:00:00 NR 8.50 134.57
WP 06:00:00 NR 8.57 134.51
WP 09:00:00 NR 8.66 134.51
WP 10:00:00 NR 8.70 134.50
WP 12:00:00 NR 8.80 134.40
WP 15:00:00 NR 8.97 134.26
WP 18:00:00 NR 9.15 134.11
WP 21:00:00 NR 9.34 133.95
WP 22:00:00 NR 9.40 133.90
WP 1933-08-04 00:00:00 NR 9.51 133.80
WP 03:00:00 NR 9.67 133.65
WP 06:00:00 NR 9.82 133.48
WP 09:00:00 NR 9.96 133.28
WP 10:00:00 NR 10.00 133.20
WP 12:00:00 NR 10.08 133.03
WP 15:00:00 NR 10.18 132.75
WP 18:00:00 NR 10.28 132.44
WP 21:00:00 NR 10.37 132.11
WP 22:00:00 NR 10.40 132.00

Source Information

Agency Information
USA
TOKYO
CMA
HKO
NEWDELHI
REUNION
BOM
NADI
WELLINGTON
DS824
TD9636 cons_worldwide_trop_cyclone_18710101-19891231-003:Line=9320
TD9635
NEUMANN
MLC

All available IBTrACS Data

SEASON BASIN SUBBASIN ISO_TIME_________ NATURE LAT LON DIST2LAND LANDFALL IFLAG USA SSHS TD9636 LAT TD9636 LON TD9636 STAGE STORM SPEED STORM DIR
Year degrees north degrees east km km 1 degrees north degrees east kts degrees
1933 WP MM 1933-07-30 22:00:00 NR 5.80 149.70 921 921 __________O___ -1 5.80 149.70 7 9 329
1933 WP MM 1933-07-31 00:00:00 NR 6.06 149.53 948 948 __________P___ -1 6.06 149.53 7 9 327
1933 WP MM 03:00:00 NR 6.45 149.27 975 984 __________P___ -1 6.45 149.27 7 9 323
1933 WP MM 06:00:00 NR 6.80 148.98 1013 1011 __________P___ -1 6.80 148.98 7 9 316
1933 WP MM 09:00:00 NR 7.11 148.63 1039 1039 __________P___ -1 7.11 148.63 7 9 310
1933 WP MM 10:00:00 NR 7.20 148.50 1049 1048 __________O___ -1 7.20 148.50 7 10 301
1933 WP MM 12:00:00 NR 7.36 148.21 1068 1066 __________P___ -1 7.36 148.21 7 10 294
1933 WP MM 15:00:00 NR 7.54 147.74 1076 1076 __________P___ -1 7.54 147.74 7 10 288
1933 WP MM 18:00:00 NR 7.68 147.24 1098 1098 __________P___ -1 7.68 147.24 7 10 283
1933 WP MM 21:00:00 NR 7.77 146.75 1109 1109 __________P___ -1 7.77 146.75 7 10 281
1933 WP MM 22:00:00 NR 7.80 146.60 1109 1109 __________O___ -1 7.80 146.60 7 9 282
1933 WP MM 1933-08-01 00:00:00 NR 7.86 146.33 1121 1121 __________P___ -1 7.86 146.33 7 8 281
1933 WP MM 03:00:00 NR 7.92 145.96 1122 1123 __________P___ -1 7.92 145.96 7 7 278
1933 WP MM 06:00:00 NR 7.96 145.59 1137 1137 __________P___ -1 7.96 145.59 7 7 276
1933 WP MM 09:00:00 NR 7.99 145.23 1142 1142 __________P___ -1 7.99 145.23 7 7 274
1933 WP MM 10:00:00 NR 8.00 145.10 1143 1143 __________O___ -1 8.00 145.10 7 7 276
1933 WP MM 12:00:00 NR 8.02 144.89 1147 1147 __________P___ -1 8.02 144.89 7 6 276
1933 WP MM 15:00:00 NR 8.05 144.57 1164 1164 __________P___ -1 8.05 144.57 7 7 274
1933 WP MM 18:00:00 NR 8.08 144.17 1173 1176 __________P___ -1 8.08 144.17 7 9 273
1933 WP MM 21:00:00 NR 8.10 143.63 1190 1190 __________P___ -1 8.10 143.63 7 12 272
1933 WP MM 22:00:00 NR 8.10 143.40 1196 1196 __________O___ -1 8.10 143.40 7 16 270
1933 WP MM 1933-08-02 00:00:00 NR 8.10 142.84 1199 1158 __________P___ -1 8.10 142.84 7 19 270
1933 WP MM 03:00:00 NR 8.09 141.84 1158 1121 __________P___ -1 8.09 141.84 7 21 270
1933 WP MM 06:00:00 NR 8.08 140.73 1121 1078 __________P___ -1 8.08 140.73 7 22 270
1933 WP MM 09:00:00 NR 8.09 139.58 1078 1066 __________P___ -1 8.09 139.58 7 23 271
1933 WP MM 10:00:00 NR 8.10 139.20 1062 1033 __________O___ -1 8.10 139.20 7 23 272
1933 WP MM 12:00:00 NR 8.13 138.42 1033 1014 __________P___ -1 8.13 138.42 7 23 273
1933 WP MM 15:00:00 NR 8.20 137.25 1014 1003 __________P___ -1 8.20 137.25 7 22 274
1933 WP MM 18:00:00 NR 8.29 136.19 1010 961 __________P___ -1 8.29 136.19 7 19 275
1933 WP MM 21:00:00 NR 8.37 135.32 961 939 __________P___ -1 8.37 135.32 7 16 276
1933 WP MM 22:00:00 NR 8.40 135.10 939 907 __________O___ -1 8.40 135.10 7 10 277
1933 WP MM 1933-08-03 00:00:00 NR 8.44 134.80 907 886 __________P___ -1 8.44 134.80 7 6 280
1933 WP MM 03:00:00 NR 8.50 134.57 886 875 __________P___ -1 8.50 134.57 7 3 294
1933 WP MM 06:00:00 NR 8.57 134.51 876 876 __________P___ -1 8.57 134.51 7 2 339
1933 WP MM 09:00:00 NR 8.66 134.51 877 877 __________P___ -1 8.66 134.51 7 2 0
1933 WP MM 10:00:00 NR 8.70 134.50 877 867 __________O___ -1 8.70 134.50 7 3 322
1933 WP MM 12:00:00 NR 8.80 134.40 867 858 __________P___ -1 8.80 134.40 7 4 318
1933 WP MM 15:00:00 NR 8.97 134.26 860 840 __________P___ -1 8.97 134.26 7 5 321
1933 WP MM 18:00:00 NR 9.15 134.11 842 831 __________P___ -1 9.15 134.11 7 5 321
1933 WP MM 21:00:00 NR 9.34 133.95 833 825 __________P___ -1 9.34 133.95 7 5 320
1933 WP MM 22:00:00 NR 9.40 133.90 825 817 __________O___ -1 9.40 133.90 7 5 319
1933 WP MM 1933-08-04 00:00:00 NR 9.51 133.80 817 801 __________P___ -1 9.51 133.80 7 4 318
1933 WP MM 03:00:00 NR 9.67 133.65 801 794 __________P___ -1 9.67 133.65 7 4 314
1933 WP MM 06:00:00 NR 9.82 133.48 794 776 __________P___ -1 9.82 133.48 7 5 308
1933 WP MM 09:00:00 NR 9.96 133.28 780 769 __________P___ -1 9.96 133.28 7 5 303
1933 WP MM 10:00:00 NR 10.00 133.20 769 749 __________O___ -1 10.00 133.20 7 5 297
1933 WP MM 12:00:00 NR 10.08 133.03 749 719 __________P___ -1 10.08 133.03 7 6 293
1933 WP MM 15:00:00 NR 10.18 132.75 719 690 __________P___ -1 10.18 132.75 7 6 289
1933 WP MM 18:00:00 NR 10.28 132.44 690 660 __________P___ -1 10.28 132.44 7 7 286
1933 WP MM 21:00:00 NR 10.37 132.11 660 650 __________P___ -1 10.37 132.11 7 7 285
1933 WP MM 22:00:00 NR 10.40 132.00 650 __________O___ -1 10.40 132.00 7 7 284